East Des Moines, Iowa
Current Conditions -  °F | °C
As of 1:54 AM on Sunday 26 Oct 2014 (Local Time) from KDSM Reporting Station
Clear Clear  
Wind Chill: 54°   Ceiling: Unl
Heat Index: 54°   Visibility: 10mi
Dew Point: 34°   Wind: 7mph
Humidity: 47%   Direction: 80°E
Pressure: 30.04"   Gusts: NA
Location:  41.5836°N, 93.6292°W
Report Text: KDSM 260654Z 08006KT 10SM CLR 12/01 A3004 RMK AO2 SLP169 T01220011
Loading
Personal Weather Stations






























Interactive Weather Map
Tropical Storm Tracking
New forecast layout! Learn more

10-Day Weather Forecast

Advertisements
Track Severe Weather on mobile